Главная страница
METAR-TAF:

METAR-TAF

Аэропорты :

Турсбю, Швеция

широта: 60-09-17N, долгота: 12-59-40E, высота над уровнем моря: 120 м

Текущие метеонаблюдения

Эта сводка был подготовлена 19 минут назад, в 18:20 UTC
Ветер 8 Узел от южный-юго-западный
Температура 9°C
Влажность 81%
Давление 1008 hPa
Видимость 10 км и более
Отдельные облака на высоте 10000 фута
Сплошная облачность на высоте 15000 фута

METAR: ESST 221820Z 21008KT 9999 SCT100 OVC150 09/06 Q1008

Время: 20:39 (18:39 UTC)


TAF: отсутствует

Метеонаблюдения и прогнозы для более 4000 аэропортов (сводки METAR и TAF).

Имеющиеся станции представлены на карте желтыми и красными точками.

Чтобы увидеть название станции, наведите на нее мышь.

Затем щелкните, чтобы увидеть метеонаблюдения и метеопрогнозы.

Управление картой: чтобы увеличить масштаб, щелкните зеленые кнопки с черным крестиком; чтобы уменьшить масштаб, щелкните зеленую кнопку с тире; для просмотра соседних карт щелкайте зеленые стрелки.


METAR-TAF: